Marty Baskerville — WDC8730 — position and weather

sailwx.info

Track history (hours):
 
Tides and Currents Weather Stations Pressure Air Temp Water Temp Dewpoint Dewpoint Depression Visibility Wind Speed Wind Dir Waves Ship Positions

Marty Baskerville

Owner: Ingram Barge Company LLC, NASHVILLE, TN. More information available from US FCC via Universal Licensing System and Coast Guard Vessel Documentation Center.

Last reported at 2017-Nov-28 10:40 UTC. Time now 2018-Feb-23 02:35 UTC.
Position N 32°47' W 091°09'.
Warning: this ship's position is months out of date.

Length 60 m.

Type: Towing. MMSI: 367092230.

Date/timePositionNaut miles runAvg speedWind from/ knotsBaromVisibWave heightAir tempDewpointWater temp
2017-Nov-28 10:40N 32°47' W 091°09'1 5.0
2017-Nov-28 10:30N 32°46' W 091°09'5 4.2
2017-Nov-28 09:21N 32°44' W 091°04'4 4.0
2017-Nov-28 08:28N 32°41' W 091°06'2 5.3
2017-Nov-28 08:00N 32°40' W 091°08'2 4.7
2017-Nov-28 07:30N 32°37' W 091°09'3 5.4
2017-Nov-28 07:00N 32°35' W 091°07'3 5.2
2017-Nov-28 06:30N 32°33' W 091°06'3 5.9
2017-Nov-28 06:00N 32°30' W 091°07'2 4.9
2017-Nov-28 05:30N 32°28' W 091°06'6 5.7
2017-Nov-28 04:30N 32°25' W 090°60'2 4.0
2017-Nov-28 04:00N 32°23' W 090°60'2 4.4
2017-Nov-28 03:30N 32°21' W 090°59'3 5.9
2017-Nov-28 03:00N 32°21' W 090°55'2 4.3
2017-Nov-28 02:30N 32°19' W 090°54'3 5.8
2017-Nov-28 02:00N 32°17' W 090°57'3 5.3
2017-Nov-28 01:30N 32°15' W 090°59'3 5.7
2017-Nov-28 01:00N 32°12' W 090°59'3 5.5
2017-Nov-28 00:30N 32°09' W 091°00'3 5.0
2017-Nov-27 23:59N 32°07' W 091°02'3 5.9
2017-Nov-27 23:27N 32°08' W 091°06'2 4.1
2017-Nov-27 23:00N 32°06' W 091°06'3 5.6
2017-Nov-27 22:29N 32°04' W 091°04'3 5.8
2017-Nov-27 22:00N 32°01' W 091°04'  
2017-Nov-24 15:58N 31°59' W 091°07'4 8.4
2017-Nov-24 15:29N 32°02' W 091°04'4 7.7
2017-Nov-24 14:59N 32°06' W 091°06'2 4.4
2017-Nov-24 14:30N 32°08' W 091°06'2 3.2
2017-Nov-24 14:00N 32°08' W 091°04'0 0.1
2017-Nov-24 11:25N 32°08' W 091°04'0 0.0
2017-Nov-24 10:59N 32°08' W 091°04'0 0.0
2017-Nov-24 10:18N 32°08' W 091°04'0 0.0
2017-Nov-24 09:20N 32°08' W 091°04'0 0.3
2017-Nov-24 09:00N 32°08' W 091°04'3 5.6
2017-Nov-24 08:30N 32°08' W 091°01'4 8.3
2017-Nov-24 08:00N 32°11' W 090°60'4 8.8
2017-Nov-24 07:30N 32°16' W 090°58'4 7.8
2017-Nov-24 07:00N 32°18' W 090°55'2 4.2
2017-Nov-24 06:30N 32°20' W 090°54'3 6.8
2017-Nov-24 06:00N 32°21' W 090°58'3 6.1
2017-Nov-24 05:31N 32°24' W 090°59'4 7.7
2017-Nov-24 05:00N 32°26' W 091°03'4 8.3
2017-Nov-24 04:30N 32°29' W 091°07'4 8.6
2017-Nov-24 04:00N 32°33' W 091°06'4 8.4
2017-Nov-24 03:30N 32°36' W 091°09'  
Track history (hours):
 
Tides and Currents Weather Stations Pressure Air Temp Water Temp Dewpoint Dewpoint Depression Visibility Wind Speed Wind Dir Waves Ship Positions

Marty Baskerville

Owner: Ingram Barge Company LLC, NASHVILLE, TN. More information available from US FCC via Universal Licensing System and Coast Guard Vessel Documentation Center.

Last reported at 2017-Nov-28 10:40 UTC. Time now 2018-Feb-23 02:35 UTC.
Position N 32°47' W 091°09'.
Warning: this ship's position is months out of date.

Length 60 m.

Type: Towing. MMSI: 367092230.

Date/timePositionNaut miles runAvg speedWind from/ knotsBaromVisibWave heightAir tempDewpointWater temp
2017-Nov-28 10:40N 32°47' W 091°09'1 5.0
2017-Nov-28 10:30N 32°46' W 091°09'5 4.2
2017-Nov-28 09:21N 32°44' W 091°04'4 4.0
2017-Nov-28 08:28N 32°41' W 091°06'2 5.3
2017-Nov-28 08:00N 32°40' W 091°08'2 4.7
2017-Nov-28 07:30N 32°37' W 091°09'3 5.4
2017-Nov-28 07:00N 32°35' W 091°07'3 5.2
2017-Nov-28 06:30N 32°33' W 091°06'3 5.9
2017-Nov-28 06:00N 32°30' W 091°07'2 4.9
2017-Nov-28 05:30N 32°28' W 091°06'6 5.7
2017-Nov-28 04:30N 32°25' W 090°60'2 4.0
2017-Nov-28 04:00N 32°23' W 090°60'2 4.4
2017-Nov-28 03:30N 32°21' W 090°59'3 5.9
2017-Nov-28 03:00N 32°21' W 090°55'2 4.3
2017-Nov-28 02:30N 32°19' W 090°54'3 5.8
2017-Nov-28 02:00N 32°17' W 090°57'3 5.3
2017-Nov-28 01:30N 32°15' W 090°59'3 5.7
2017-Nov-28 01:00N 32°12' W 090°59'3 5.5
2017-Nov-28 00:30N 32°09' W 091°00'3 5.0
2017-Nov-27 23:59N 32°07' W 091°02'3 5.9
2017-Nov-27 23:27N 32°08' W 091°06'2 4.1
2017-Nov-27 23:00N 32°06' W 091°06'3 5.6
2017-Nov-27 22:29N 32°04' W 091°04'3 5.8
2017-Nov-27 22:00N 32°01' W 091°04'  
2017-Nov-24 15:58N 31°59' W 091°07'4 8.4
2017-Nov-24 15:29N 32°02' W 091°04'4 7.7
2017-Nov-24 14:59N 32°06' W 091°06'2 4.4
2017-Nov-24 14:30N 32°08' W 091°06'2 3.2
2017-Nov-24 14:00N 32°08' W 091°04'0 0.1
2017-Nov-24 11:25N 32°08' W 091°04'0 0.0
2017-Nov-24 10:59N 32°08' W 091°04'0 0.0
2017-Nov-24 10:18N 32°08' W 091°04'0 0.0
2017-Nov-24 09:20N 32°08' W 091°04'0 0.3
2017-Nov-24 09:00N 32°08' W 091°04'3 5.6
2017-Nov-24 08:30N 32°08' W 091°01'4 8.3
2017-Nov-24 08:00N 32°11' W 090°60'4 8.8
2017-Nov-24 07:30N 32°16' W 090°58'4 7.8
2017-Nov-24 07:00N 32°18' W 090°55'2 4.2
2017-Nov-24 06:30N 32°20' W 090°54'3 6.8
2017-Nov-24 06:00N 32°21' W 090°58'3 6.1
2017-Nov-24 05:31N 32°24' W 090°59'4 7.7
2017-Nov-24 05:00N 32°26' W 091°03'4 8.3
2017-Nov-24 04:30N 32°29' W 091°07'4 8.6
2017-Nov-24 04:00N 32°33' W 091°06'4 8.4
2017-Nov-24 03:30N 32°36' W 091°09'  

Dump ship's entire track history